Airfield :
LOGIN :

Register | Disclaimer

   EN    FR    IT 

 










Legend :    VFR   Marginal VFR   IFR   Intensive IFR   Very Intensive IFR
Visi :
Ceiling :
>= 8 km
>= 3000ft
5 to 8 km
1000 to 3000 ft
1500m to 5 km
500 to 1000 ft
800 to 1500m
200 to 500 ft
< 800m
< 200 ft
Symbols :   Thunderstorms  Fog  Heavy snow  Heavy precipitations  Wind > 20 kt
SIGMETs :     Misc.  Thunderstorms  Icing  Turbulence  Mountain Waves  Volcanic Ashes






- Airport Elevation : 72 ft
- IATA code : UDE


EHVK - Volkel Airbase

CURRENT METAR :
  • 270355Z AUTO 35003KT 340V060 9000 BR OVC005 04/02 Q1039 YLO

EXPIRED METARs :
  • 270347Z AUTO 35004KT 320V050 9000 BR OVC005 04/03 Q1039 YLO
  • 270325Z AUTO 02004KT 340V050 6000 BR OVC004 04/03 Q1039 YLO
  • 270255Z AUTO 03003KT 330V050 5000 BR OVC004 04/03 Q1038 YLO
  • 270236Z AUTO 02004KT 310V020 5000 BR OVC003 04/03 Q1038 YLO
  • 270225Z AUTO 35005KT 310V030 3900 BR BKN003 OVC004 04/03 Q1038 YLO
  • 270202Z AUTO 01004KT 320V020 5000 BR FEW002 BKN003 OVC005 03/03 Q1038 YLO
  • 270134Z AUTO 01003KT 310V060 3400 BR OVC002 03/03 Q1038 AMB
  • 270125Z AUTO 36003KT 290V020 6000 BR OVC002 03/03 Q1038 AMB
  • 270110Z AUTO 36003KT 7000 BR BKN002 OVC003 03/02 Q1039 AMB

TAF TAF EHVK
Valid from the 27 at 02:00 until the 27 at 14:00 UTC


270133Z 2702/2714 VRB02KT 3000 BR OVC003
BECMG 2702/2704 1500
PROB40 0702/0707 0300 FG OVC001
BECMG 2707/2709 3000 BR SCT002 BKN004
BECMG 2709/2711 7000 NSW SCT004 BKN008
BECMG 2711/2713 FEW015 SCT020



MET'MAP, your aeronautical weather chart ! - Copyright ORBIFLY December 2007 - Disclaimer

ORBIFLY MET'MAP TEAM :

Programming & Development : Alexandra Zaïnal
Concept & original design : Baudouin d'Aumeries
Assistance for programming : Marc-Olivier Méhu
Technical & hardware support : Manuel Goepfert

Contact : metmap@orbifly.com




SOURCES & CREDITS :

   NOAA